Time;durP1;ratioP1;P1;durP2;ratioP2;P2;SDS_P1;SDS_P2;PMS_P1;PMS_P2;Temp;Humidity;BMP_temperature;BMP_pressure;BME280_temperature;BME280_humidity;BME280_pressure;Samples;Min_cycle;Max_cycle;Signal;HPM_P1;HPM_P2
2022/04/25 13:03:26;;;;;;;3.03;1.50;;;;;;;;;;5179921;27;20364;-96
2022/04/25 13:06:16;;;;;;;5.25;1.88;;;;;;;;;;5298209;22;20086;-95
2022/04/25 13:08:42;;;;;;;2.78;1.75;;;;;;;;;;5159971;27;20309;-94
2022/04/25 13:14:09;;;;;;;3.47;1.60;;;;;;;;;;5555020;22;20028;-96
2022/04/25 13:16:35;;;;;;;1.83;0.85;;;;;;;;;;5201946;22;20084;-96
2022/04/25 13:19:01;;;;;;;3.38;1.95;;;;;;;;;;5078555;28;20036;-92
2022/04/25 13:21:28;;;;;;;1.83;1.00;;;;;;;;;;5094664;28;20036;-92
2022/04/25 13:23:54;;;;;;;24.98;16.60;;;;;;;;;;5094788;28;20016;-93
2022/04/25 13:26:20;;;;;;;7.13;4.72;;;;;;;;;;5094643;28;20027;-93
2022/04/25 13:28:47;;;;;;;11.50;7.25;;;;;;;;;;5076563;28;20055;-90
2022/04/25 13:31:13;;;;;;;2.70;1.42;;;;;;;;;;5094339;28;20031;-91
2022/04/25 13:33:40;;;;;;;3.45;1.48;;;;;;;;;;5094633;28;20024;-91
2022/04/25 13:36:06;;;;;;;2.80;1.63;;;;;;;;;;5094740;28;20013;-91
2022/04/25 13:38:35;;;;;;;3.88;1.40;;;;;;;;;;5076800;28;20021;-92
2022/04/25 13:41:02;;;;;;;4.50;1.90;;;;;;;;;;5094667;28;20024;-90
2022/04/25 13:43:28;;;;;;;2.53;1.40;;;;;;;;;;5076453;28;20025;-90
2022/04/25 13:45:54;;;;;;;2.13;1.35;;;;;;;;;;5094113;28;20028;-91
2022/04/25 13:48:23;;;;;;;4.60;1.48;;;;;;;;;;5094162;28;20028;-92
2022/04/25 13:50:49;;;;;;;2.10;1.13;;;;;;;;;;5075798;28;20033;-91
2022/04/25 13:53:15;;;;;;;5.28;2.10;;;;;;;;;;5094003;28;20024;-92
2022/04/25 13:55:41;;;;;;;9.68;2.58;;;;;;;;;;5094106;28;20395;-92
2022/04/25 13:58:07;;;;;;;6.18;3.38;;;;;;;;;;5094310;28;20016;-91
2022/04/25 14:00:33;;;;;;;6.30;3.58;;;;;;;;;;5075817;28;20028;-91
2022/04/25 14:03:05;;;;;;;11.43;5.15;;;;;;;;;;5088026;28;20028;-91
2022/04/25 14:05:32;;;;;;;6.78;3.17;;;;;;;;;;5080274;28;20036;-92
2022/04/25 14:07:58;;;;;;;5.78;3.55;;;;;;;;;;5080176;28;20463;-91
2022/04/25 14:10:24;;;;;;;6.68;3.47;;;;;;;;;;5080589;28;20028;-92
2022/04/25 14:12:50;;;;;;;2.95;2.40;;;;;;;;;;5080367;28;20029;-91
2022/04/25 14:15:17;;;;;;;2.42;1.17;;;;;;;;;;5061941;28;20036;-91
2022/04/25 14:17:43;;;;;;;4.80;1.05;;;;;;;;;;5079028;28;20032;-85
2022/04/25 14:20:10;;;;;;;1.70;1.20;;;;;;;;;;5061983;28;20043;-85
2022/04/25 14:22:36;;;;;;;3.97;1.10;;;;;;;;;;5079710;28;20082;-85
2022/04/25 14:25:03;;;;;;;3.03;1.25;;;;;;;;;;5090839;28;20103;-86
2022/04/25 14:27:30;;;;;;;2.17;1.00;;;;;;;;;;5082182;28;20031;-85
2022/04/25 14:29:56;;;;;;;3.22;0.95;;;;;;;;;;5079629;28;20036;-86
2022/04/25 14:32:22;;;;;;;1.67;0.80;;;;;;;;;;5072907;28;20040;-85
2022/04/25 14:34:48;;;;;;;3.00;1.05;;;;;;;;;;5061307;28;20032;-87
2022/04/25 14:37:14;;;;;;;3.80;1.00;;;;;;;;;;5061065;28;20322;-87
2022/04/25 14:39:40;;;;;;;2.58;1.13;;;;;;;;;;5062169;28;20150;-87
2022/04/25 14:42:06;;;;;;;1.25;0.60;;;;;;;;;;5079027;28;20032;-87
2022/04/25 14:44:33;;;;;;;3.22;1.08;;;;;;;;;;5079566;28;20033;-88
2022/04/25 14:47:03;;;;;;;4.20;1.45;;;;;;;;;;5078006;28;20039;-87
2022/04/25 14:54:59;;;;;;;2.65;1.00;;;;;;;;;;5078540;28;20047;-87
2022/04/25 14:57:26;;;;;;;2.38;1.27;;;;;;;;;;5061657;28;20327;-87
2022/04/25 14:59:52;;;;;;;3.85;1.75;;;;;;;;;;5061170;28;20106;-87
2022/04/25 15:02:18;;;;;;;3.40;1.30;;;;;;;;;;5079583;28;20029;-87
2022/04/25 15:04:46;;;;;;;1.80;1.20;;;;;;;;;;5061532;28;20162;-87
2022/04/25 15:07:12;;;;;;;1.65;0.80;;;;;;;;;;5079380;28;20051;-87
2022/04/25 15:09:39;;;;;;;2.20;1.48;;;;;;;;;;5079188;28;20346;-87
2022/04/25 15:12:06;;;;;;;2.72;1.00;;;;;;;;;;5078387;28;20090;-86
2022/04/25 15:14:32;;;;;;;2.88;1.65;;;;;;;;;;5078287;28;20020;-87
2022/04/25 15:16:58;;;;;;;2.05;1.40;;;;;;;;;;5078708;28;20057;-87
2022/04/25 15:19:24;;;;;;;4.82;1.63;;;;;;;;;;5079060;28;20021;-86
2022/04/25 15:21:50;;;;;;;2.63;1.40;;;;;;;;;;5060832;28;20043;-87
2022/04/25 15:24:16;;;;;;;3.55;1.50;;;;;;;;;;5060633;28;20468;-86
2022/04/25 15:26:42;;;;;;;2.17;1.02;;;;;;;;;;5061162;28;20039;-87
2022/04/25 15:29:08;;;;;;;1.90;1.20;;;;;;;;;;5078615;28;20024;-86
2022/04/25 15:31:34;;;;;;;1.45;1.00;;;;;;;;;;5060937;28;20036;-86
2022/04/25 15:34:00;;;;;;;1.48;1.20;;;;;;;;;;5078139;28;20027;-86
2022/04/25 15:36:26;;;;;;;1.73;1.20;;;;;;;;;;5060459;28;20050;-87
2022/04/25 15:38:53;;;;;;;2.88;1.20;;;;;;;;;;5078781;28;20035;-87
2022/04/25 15:41:19;;;;;;;2.42;1.52;;;;;;;;;;5077521;28;20032;-87
2022/04/25 15:43:47;;;;;;;4.65;1.70;;;;;;;;;;5058872;28;20063;-87
2022/04/25 15:46:15;;;;;;;5.10;2.28;;;;;;;;;;5078338;28;20063;-87
2022/04/25 15:48:41;;;;;;;7.82;4.40;;;;;;;;;;5076910;28;20066;-87
2022/04/25 15:51:07;;;;;;;5.22;2.50;;;;;;;;;;5094920;28;20073;-87
2022/04/25 15:59:06;;;;;;;7.28;2.40;;;;;;;;;;5078629;28;20051;-86
2022/04/25 16:01:32;;;;;;;8.38;3.00;;;;;;;;;;5078068;28;20024;-86
2022/04/25 16:03:59;;;;;;;5.10;2.20;;;;;;;;;;5078051;28;20075;-87
2022/04/25 16:06:25;;;;;;;5.40;3.20;;;;;;;;;;5067226;28;20035;-87
2022/04/25 16:08:51;;;;;;;9.45;4.50;;;;;;;;;;5067129;28;20119;-87
2022/04/25 16:11:17;;;;;;;11.25;10.10;;;;;;;;;;5076454;28;20024;-90
2022/04/25 16:13:43;;;;;;;9.88;4.18;;;;;;;;;;5083850;28;20051;-86
2022/04/25 16:16:11;;;;;;;5.38;3.28;;;;;;;;;;5065041;28;20040;-87
2022/04/25 16:18:37;;;;;;;5.45;3.15;;;;;;;;;;5076738;28;20035;-87
2022/04/25 16:21:04;;;;;;;6.20;2.67;;;;;;;;;;5078156;28;20024;-89
2022/04/25 16:23:30;;;;;;;5.75;2.83;;;;;;;;;;5079720;28;20025;-90
2022/04/25 16:26:02;;;;;;;4.18;2.30;;;;;;;;;;5059789;28;20032;-90
2022/04/25 16:28:30;;;;;;;3.03;2.20;;;;;;;;;;5078172;28;20025;-90
2022/04/25 16:30:57;;;;;;;7.65;3.67;;;;;;;;;;5077544;28;20032;-89
2022/04/25 16:33:24;;;;;;;4.97;2.65;;;;;;;;;;5077780;28;20032;-90
2022/04/25 16:35:50;;;;;;;4.55;2.08;;;;;;;;;;5077410;28;20023;-90
2022/04/25 16:38:17;;;;;;;2.15;1.60;;;;;;;;;;5059961;28;20481;-89
2022/04/25 16:40:43;;;;;;;8.65;2.20;;;;;;;;;;5077691;28;20103;-90
2022/04/25 16:43:12;;;;;;;2.78;1.77;;;;;;;;;;5077575;28;20464;-90
2022/04/25 16:45:38;;;;;;;4.93;2.22;;;;;;;;;;5077622;28;20082;-90
2022/04/25 16:48:04;;;;;;;4.50;2.13;;;;;;;;;;5077363;28;20036;-90
2022/04/25 16:50:31;;;;;;;3.50;2.08;;;;;;;;;;5077636;28;20310;-89
2022/04/25 16:52:57;;;;;;;7.47;1.73;;;;;;;;;;5077476;28;20082;-89
2022/04/25 16:55:29;;;;;;;3.90;1.65;;;;;;;;;;5077828;28;20415;-90
2022/04/25 16:57:55;;;;;;;4.15;2.28;;;;;;;;;;5059342;28;20115;-89
2022/04/25 17:00:22;;;;;;;4.88;2.15;;;;;;;;;;5077527;28;20027;-89
2022/04/25 17:02:49;;;;;;;5.88;3.90;;;;;;;;;;5077224;28;20051;-89
2022/04/25 17:05:15;;;;;;;5.97;3.20;;;;;;;;;;5059670;28;20024;-90
2022/04/25 17:07:42;;;;;;;6.22;3.58;;;;;;;;;;5059751;28;20434;-90
2022/04/25 17:10:08;;;;;;;4.63;3.40;;;;;;;;;;5077432;28;20035;-90
2022/04/25 17:12:34;;;;;;;6.70;2.83;;;;;;;;;;5077182;28;20025;-90
2022/04/25 17:15:00;;;;;;;4.45;2.92;;;;;;;;;;5076942;28;20327;-90
2022/04/25 17:17:27;;;;;;;4.57;2.25;;;;;;;;;;5077511;28;20021;-89
2022/04/25 17:19:53;;;;;;;4.88;2.70;;;;;;;;;;5077252;28;20039;-90
2022/04/25 17:22:19;;;;;;;4.72;2.40;;;;;;;;;;5077257;28;20031;-90
2022/04/25 17:24:46;;;;;;;7.82;2.38;;;;;;;;;;5077239;28;20126;-91
2022/04/25 17:27:12;;;;;;;4.82;1.92;;;;;;;;;;5077107;28;20024;-91
2022/04/25 17:29:39;;;;;;;3.90;2.10;;;;;;;;;;5077211;28;20322;-90
